Dallas, TX

11:49 AM CDT on April 01, 2015 (GMT -0500)
Deep Ellum | | Change Station
CLOSE
Current Station
Personal Weather Station
Location: Dallas, TX
Elevation: 489 ft
Nearby Weather Stations

Elev 489 ft 32.78 °N, 96.78 °W | Updated 8 seconds ago

Overcast
Overcast
74.5 °F
Feels Like 75 °F
N
4.5
Wind Variable Wind from SSE
Gusts 7.4 mph

Today
High -- | Low -- °F
--% Chance of Precip.
Yesterday
High -- | Low -- °F
Precip. -- in
7:15 AM 7:47 PM
Waxing Gibbous, 93% visible
Pressure 29.92 in
Visibility 5.0 miles
Clouds Mostly Cloudy 1900 ft
Mostly Cloudy 10000 ft
Heat Index 75 °F
Dew Point 67 °F
Humidity 77%
Rainfall 0.00 in
Snow Depth Not available.
UV 2.0 out of 12
Pollen 11.60 out of 12
Air Quality Not available.
Flu Activity Not available.
SPECI KDAL 011623Z 16012KT 5SM HZ BKN019 BKN100 24/18 A2992 RMK AO2 T02390183

More Conditions Fewer Conditions

Pressure 29.92 in
Visibility 5.0 miles
Clouds Mostly Cloudy 1900 ft
Mostly Cloudy 10000 ft
Heat Index 75 °F
Dew Point 67 °F
Humidity 77%
Rainfall 0.00 in
Snow Depth Not available.
UV 2.0 out of 12
Pollen 11.60 out of 12
Air Quality Not available.
Flu Activity Not available.
SPECI KDAL 011623Z 16012KT 5SM HZ BKN019 BKN100 24/18 A2992 RMK AO2 T02390183

More Conditions Fewer Conditions

Nowcast | as of 9:16 am CDT on April 1, 2015

Scattered showers will continue to move northeastward across portions of North Texas this morning...primarily north of Interstate 20. Isolated thunderstorms will also be possible...which may produce lightning and brief heavy rain. Elsewhere...temperatures will be in the upper 60s and low 70s under mostly cloudy skies.

×

10-Day Weather Forecast

Almanac

Astronomy

Apr. 01, 2015 Rise Set
Actual Time
Civil Twilight
Nautical Twilight
Astronomical Twilight
Moon
Length of Visible Light
Length of Day
Tomorrow will be .
, % of the Moon is Illuminated

Today's Extremes

State Highs State Lows

Community

WunderPhotos

Upload Photos

1,810,005 photos uploaded!

WunderBlogs® & News

Nearby

Air Quality

  Air Quality AQ Index Pollutant
Not available.

Snow Depth

Station Depth Elevation

Earthquake Activity

City Distance Mag. Time & Date
Minimum magnitude displayed is 2.5.

Coastal Water Temperatures

Place Temperature

Stations

Nearby Weather Stations

Station Location Temp. Windchill Dew Point Humidity Wind Precip. Elev Updated Type